createdAt,value
2019-03-31T00:01:08.054Z,3.60
2019-03-31T00:03:35.318Z,3.40
2019-03-31T00:06:09.899Z,3.40
2019-03-31T00:08:43.305Z,3.40
2019-03-31T00:11:22.640Z,3.50
2019-03-31T00:13:55.920Z,3.40
2019-03-31T00:16:29.340Z,3.20
2019-03-31T00:19:02.678Z,3.20
2019-03-31T00:21:51.877Z,3.30
2019-03-31T00:27:04.386Z,3.20
2019-03-31T00:29:37.789Z,3.20
2019-03-31T00:32:11.174Z,3.20
2019-03-31T00:34:47.693Z,3.20
2019-03-31T00:37:21.159Z,3.10
2019-03-31T00:39:54.568Z,3.10
2019-03-31T00:42:27.922Z,3.00
2019-03-31T00:45:02.478Z,3.00
2019-03-31T00:47:36.009Z,2.90
2019-03-31T00:50:10.795Z,2.90
2019-03-31T00:52:47.223Z,2.90
2019-03-31T00:55:20.548Z,2.80
2019-03-31T00:57:53.888Z,2.80
2019-03-31T01:00:45.518Z,2.80
2019-03-31T01:03:22.129Z,2.80
2019-03-31T01:05:55.798Z,2.80
2019-03-31T01:08:32.358Z,2.70
2019-03-31T01:11:10.711Z,2.70
2019-03-31T01:13:46.442Z,2.70
2019-03-31T01:16:20.560Z,2.70
2019-03-31T01:18:54.908Z,2.70
2019-03-31T01:21:32.728Z,2.60
2019-03-31T01:24:06.288Z,2.70
2019-03-31T01:26:39.703Z,2.60
2019-03-31T01:29:14.514Z,2.50
2019-03-31T01:31:50.636Z,2.60
2019-03-31T01:34:24.119Z,2.60
2019-03-31T01:36:59.001Z,2.60
2019-03-31T01:39:33.458Z,2.60
2019-03-31T01:42:07.483Z,2.60
2019-03-31T01:44:42.014Z,2.60
2019-03-31T01:47:18.481Z,2.60
2019-03-31T01:49:51.950Z,2.40
2019-03-31T01:52:25.349Z,2.40
2019-03-31T01:54:58.703Z,2.40
2019-03-31T01:57:32.902Z,2.30
2019-03-31T02:00:12.478Z,2.30
2019-03-31T02:02:45.882Z,2.20
2019-03-31T02:05:19.237Z,2.10
2019-03-31T02:07:52.752Z,2.10
2019-03-31T02:10:29.508Z,2.10
2019-03-31T02:13:07.889Z,2.10
2019-03-31T02:15:41.249Z,2.20
2019-03-31T02:18:14.663Z,2.30
2019-03-31T02:20:48.020Z,2.00
2019-03-31T02:23:21.407Z,2.20
2019-03-31T02:25:56.678Z,2.20
2019-03-31T02:28:30.159Z,2.20
2019-03-31T02:31:03.638Z,1.90
2019-03-31T02:33:50.347Z,1.90
2019-03-31T02:36:23.841Z,1.80
2019-03-31T02:38:57.204Z,1.90
2019-03-31T02:41:30.695Z,1.90
2019-03-31T02:44:06.776Z,1.90
2019-03-31T02:46:40.201Z,1.90
2019-03-31T02:49:13.572Z,1.80
2019-03-31T02:51:48.080Z,1.80
2019-03-31T02:54:23.230Z,1.70
2019-03-31T02:56:57.240Z,1.80
2019-03-31T02:59:33.569Z,1.70
2019-03-31T03:02:07.172Z,1.80
2019-03-31T03:04:42.329Z,1.80
2019-03-31T03:07:22.809Z,1.70
2019-03-31T03:09:58.422Z,1.70
2019-03-31T03:12:35.677Z,1.70
2019-03-31T03:15:09.350Z,1.30
2019-03-31T03:17:42.729Z,1.30
2019-03-31T03:20:16.109Z,1.40
2019-03-31T03:22:49.499Z,1.40
2019-03-31T03:25:25.567Z,1.50
2019-03-31T03:27:59.057Z,1.40
2019-03-31T03:30:32.456Z,1.40
2019-03-31T03:33:18.454Z,1.50
2019-03-31T03:35:52.174Z,1.60
2019-03-31T03:38:25.560Z,1.60
2019-03-31T03:40:58.908Z,1.60
2019-03-31T03:43:33.470Z,1.50
2019-03-31T03:46:06.830Z,1.50
2019-03-31T03:48:40.211Z,1.50
2019-03-31T03:51:14.776Z,1.40
2019-03-31T03:53:48.259Z,1.40
2019-03-31T03:56:21.629Z,1.30
2019-03-31T03:58:55.880Z,1.30
2019-03-31T04:01:30.060Z,1.20
2019-03-31T04:04:03.561Z,1.10
2019-03-31T04:06:36.909Z,1.20
2019-03-31T04:09:10.325Z,1.30
2019-03-31T04:11:43.705Z,1.20
2019-03-31T04:14:18.593Z,1.20
2019-03-31T04:16:52.777Z,1.10
2019-03-31T04:19:44.881Z,1.10
2019-03-31T04:22:18.232Z,1.00
2019-03-31T04:24:51.628Z,0.90
2019-03-31T04:27:25.321Z,0.80
2019-03-31T04:30:07.213Z,0.90
2019-03-31T04:32:41.803Z,1.10
2019-03-31T04:35:16.172Z,1.20
2019-03-31T04:37:49.568Z,1.10
2019-03-31T04:40:23.231Z,1.20
2019-03-31T04:42:56.632Z,1.20
2019-03-31T04:45:30.989Z,0.80
2019-03-31T04:48:04.501Z,0.90
2019-03-31T04:50:37.888Z,1.00
2019-03-31T04:53:11.367Z,1.20
2019-03-31T04:55:44.671Z,1.20
2019-03-31T04:58:18.070Z,1.00
2019-03-31T05:00:51.535Z,1.10
2019-03-31T05:03:24.929Z,1.00
2019-03-31T05:05:59.679Z,0.90
2019-03-31T05:08:37.920Z,1.10
2019-03-31T05:11:11.219Z,1.30
2019-03-31T05:13:48.886Z,1.50
2019-03-31T05:16:26.220Z,1.60
2019-03-31T05:18:59.619Z,1.60
2019-03-31T05:21:32.983Z,1.60
2019-03-31T05:24:06.382Z,1.80
2019-03-31T05:26:39.740Z,1.80
2019-03-31T05:29:13.129Z,1.80
2019-03-31T05:31:49.250Z,1.90
2019-03-31T05:34:26.184Z,2.00
2019-03-31T05:37:03.441Z,2.10
2019-03-31T05:39:36.961Z,2.20
2019-03-31T05:42:10.334Z,2.10
2019-03-31T05:44:45.268Z,2.20
2019-03-31T05:47:18.646Z,2.20
2019-03-31T05:49:54.779Z,2.20
2019-03-31T05:52:28.136Z,2.40
2019-03-31T05:55:01.600Z,2.50
2019-03-31T05:57:34.980Z,2.70
2019-03-31T06:00:11.345Z,2.80
2019-03-31T06:02:44.851Z,2.90
2019-03-31T06:05:18.252Z,3.00
2019-03-31T06:07:51.615Z,3.10
2019-03-31T06:10:25.033Z,3.20
2019-03-31T06:12:58.488Z,3.30
2019-03-31T06:15:31.956Z,3.40
2019-03-31T06:18:05.368Z,3.50
2019-03-31T06:20:38.794Z,3.60
2019-03-31T06:23:12.181Z,3.70
2019-03-31T06:25:46.238Z,3.80
2019-03-31T06:28:19.578Z,3.90
2019-03-31T06:30:52.966Z,4.00
2019-03-31T06:33:26.370Z,4.20
2019-03-31T06:35:59.773Z,4.30
2019-03-31T06:38:33.068Z,4.50
2019-03-31T06:41:06.480Z,4.60
2019-03-31T06:43:45.530Z,4.80
2019-03-31T06:46:18.986Z,4.90
2019-03-31T06:48:52.320Z,5.10
2019-03-31T06:51:25.734Z,5.20
2019-03-31T06:53:59.408Z,5.40
2019-03-31T06:56:32.841Z,5.50
2019-03-31T06:59:06.242Z,5.90
2019-03-31T07:01:39.692Z,6.30
2019-03-31T07:04:13.236Z,6.50
2019-03-31T07:06:46.857Z,6.90
2019-03-31T07:09:20.270Z,7.00
2019-03-31T07:11:53.762Z,7.20
2019-03-31T07:14:27.226Z,7.40
2019-03-31T07:17:00.627Z,7.60
2019-03-31T07:19:34.105Z,7.70
2019-03-31T07:22:08.520Z,8.10
2019-03-31T07:24:41.889Z,8.10
2019-03-31T07:27:15.429Z,8.30
2019-03-31T07:29:48.830Z,8.60
2019-03-31T07:32:25.364Z,8.70
2019-03-31T07:34:59.722Z,9.10
2019-03-31T07:37:46.584Z,9.00
2019-03-31T07:40:13.206Z,9.20
2019-03-31T07:42:46.576Z,9.40
2019-03-31T07:45:21.678Z,9.70
2019-03-31T07:47:58.379Z,9.80
2019-03-31T07:50:32.767Z,9.80
2019-03-31T07:53:07.972Z,10.10
2019-03-31T07:55:42.895Z,10.20
2019-03-31T07:58:16.255Z,10.40
2019-03-31T08:00:49.602Z,10.70
2019-03-31T08:03:25.788Z,11.00
2019-03-31T08:05:59.928Z,11.10
2019-03-31T08:08:37.434Z,11.30
2019-03-31T08:11:11.600Z,11.50
2019-03-31T08:13:44.941Z,11.70
2019-03-31T08:16:21.352Z,11.80
2019-03-31T08:18:54.622Z,11.90
2019-03-31T08:21:29.460Z,12.00
2019-03-31T08:24:06.342Z,12.10
2019-03-31T08:26:38.676Z,12.20
2019-03-31T08:29:14.037Z,12.30
2019-03-31T08:31:47.759Z,12.30
2019-03-31T08:34:21.264Z,12.50
2019-03-31T08:36:55.534Z,12.70
2019-03-31T08:39:29.773Z,12.90
2019-03-31T08:42:03.071Z,12.90
2019-03-31T08:44:37.581Z,13.00
2019-03-31T08:47:10.988Z,13.00
2019-03-31T08:49:44.426Z,13.10
2019-03-31T08:52:18.638Z,13.30
2019-03-31T08:54:52.281Z,13.40
2019-03-31T08:57:26.210Z,13.50
2019-03-31T08:59:59.629Z,13.60
2019-03-31T09:02:36.375Z,13.60
2019-03-31T09:05:11.205Z,13.70
2019-03-31T09:07:45.034Z,13.80
2019-03-31T09:10:20.731Z,13.90
2019-03-31T09:12:54.088Z,14.00
2019-03-31T09:15:27.530Z,14.00
2019-03-31T09:18:00.901Z,14.00
2019-03-31T09:20:36.210Z,14.00
2019-03-31T09:23:10.309Z,14.20
2019-03-31T09:25:47.459Z,14.40
2019-03-31T09:28:19.842Z,14.30
2019-03-31T09:30:53.274Z,14.40
2019-03-31T09:33:39.449Z,14.50
2019-03-31T09:36:17.753Z,14.50
2019-03-31T09:38:51.751Z,14.70
2019-03-31T09:41:28.278Z,14.70
2019-03-31T09:44:01.741Z,14.90
2019-03-31T09:46:37.114Z,15.00
2019-03-31T09:49:10.931Z,14.90
2019-03-31T09:51:44.748Z,15.00
2019-03-31T09:54:21.502Z,14.90
2019-03-31T09:56:58.149Z,15.00
2019-03-31T09:59:31.872Z,15.30
2019-03-31T10:02:08.228Z,15.20
2019-03-31T10:04:43.221Z,15.10
2019-03-31T10:07:17.793Z,15.10
2019-03-31T10:12:33.630Z,15.50
2019-03-31T10:15:10.039Z,15.50
2019-03-31T10:17:46.614Z,15.60
2019-03-31T10:20:20.484Z,15.50
2019-03-31T10:22:53.939Z,15.50
2019-03-31T10:25:27.286Z,15.50
2019-03-31T10:28:01.323Z,15.70
2019-03-31T10:30:38.904Z,15.90
2019-03-31T10:33:12.442Z,16.40
2019-03-31T10:35:45.852Z,16.20
2019-03-31T10:38:19.350Z,16.30
2019-03-31T10:40:52.840Z,16.40
2019-03-31T10:43:27.865Z,16.50
2019-03-31T10:46:01.693Z,16.40
2019-03-31T10:48:36.691Z,16.30
2019-03-31T10:51:15.532Z,16.40
2019-03-31T10:53:50.507Z,16.40
2019-03-31T10:56:23.889Z,16.50
2019-03-31T10:58:57.311Z,16.50
2019-03-31T11:01:30.720Z,16.70
2019-03-31T11:04:04.952Z,16.40
2019-03-31T11:06:38.406Z,16.30
2019-03-31T11:09:11.848Z,16.40
2019-03-31T11:11:45.322Z,16.40
2019-03-31T11:14:22.243Z,16.80
2019-03-31T11:16:56.379Z,16.80
2019-03-31T11:19:29.808Z,17.10
2019-03-31T11:22:21.396Z,17.10
2019-03-31T11:24:55.001Z,17.00
2019-03-31T11:27:29.423Z,16.90
2019-03-31T11:30:03.008Z,16.70
2019-03-31T11:32:36.498Z,16.50
2019-03-31T11:35:10.704Z,16.50
2019-03-31T11:37:44.202Z,16.40
2019-03-31T11:40:17.737Z,16.40
2019-03-31T11:42:51.150Z,16.40
2019-03-31T11:45:24.601Z,16.30
2019-03-31T11:47:59.165Z,16.50
2019-03-31T11:50:32.790Z,16.80
2019-03-31T11:53:07.408Z,17.30
2019-03-31T11:55:41.568Z,17.60
2019-03-31T11:58:14.999Z,17.90
2019-03-31T12:00:52.879Z,17.80
2019-03-31T12:03:30.642Z,17.60
2019-03-31T12:06:02.219Z,17.90
2019-03-31T12:08:35.541Z,17.90
2019-03-31T12:11:09.005Z,18.30
2019-03-31T12:13:42.424Z,18.50
2019-03-31T12:16:15.869Z,18.60
2019-03-31T12:18:49.263Z,18.70
2019-03-31T12:21:22.793Z,19.10
2019-03-31T12:23:56.193Z,19.40
2019-03-31T12:26:29.655Z,19.20
2019-03-31T12:29:03.162Z,18.90
2019-03-31T12:31:37.151Z,19.00
2019-03-31T12:34:10.540Z,19.40
2019-03-31T12:36:45.180Z,19.10
2019-03-31T12:39:18.630Z,19.10
2019-03-31T12:41:52.039Z,19.40
2019-03-31T12:44:25.429Z,19.40
2019-03-31T12:46:58.850Z,19.00
2019-03-31T12:49:32.273Z,18.50
2019-03-31T12:52:05.789Z,18.00
2019-03-31T12:54:39.187Z,17.70
2019-03-31T12:57:12.619Z,17.60
2019-03-31T12:59:45.999Z,17.50
2019-03-31T13:02:19.450Z,17.60
2019-03-31T13:04:52.832Z,18.00
2019-03-31T13:07:28.450Z,18.30
2019-03-31T13:10:01.828Z,18.10
2019-03-31T13:12:36.260Z,18.00
2019-03-31T13:15:09.908Z,17.80
2019-03-31T13:17:43.418Z,17.70
2019-03-31T13:20:19.532Z,17.70
2019-03-31T13:22:52.969Z,17.80
2019-03-31T13:25:26.370Z,17.80
2019-03-31T13:27:59.930Z,17.70
2019-03-31T13:30:33.288Z,17.70
2019-03-31T13:33:06.869Z,17.60
2019-03-31T13:35:43.886Z,17.60
2019-03-31T13:38:17.288Z,17.60
2019-03-31T13:40:50.731Z,17.60
2019-03-31T13:43:24.112Z,17.60
2019-03-31T13:46:00.071Z,17.50
2019-03-31T13:48:33.529Z,17.70
2019-03-31T13:51:06.919Z,17.50
2019-03-31T13:53:40.440Z,17.50
2019-03-31T13:56:14.281Z,17.60
2019-03-31T13:58:52.346Z,17.40
2019-03-31T14:01:22.860Z,17.40
2019-03-31T14:03:57.795Z,17.50
2019-03-31T14:06:32.804Z,17.60
2019-03-31T14:09:09.593Z,17.70
2019-03-31T14:11:43.092Z,17.60
2019-03-31T14:14:16.592Z,17.50
2019-03-31T14:16:50.024Z,17.30
2019-03-31T14:19:23.609Z,17.20
2019-03-31T14:21:57.001Z,17.20
2019-03-31T14:24:30.601Z,17.40
2019-03-31T14:27:05.404Z,17.50
2019-03-31T14:29:42.258Z,17.80
2019-03-31T14:32:13.832Z,18.20
2019-03-31T14:34:47.369Z,18.30
2019-03-31T14:37:20.781Z,18.20
2019-03-31T14:39:54.195Z,18.00
2019-03-31T14:42:27.611Z,17.90
2019-03-31T14:45:02.246Z,18.00
2019-03-31T14:47:37.705Z,17.90
2019-03-31T14:50:15.149Z,17.80
2019-03-31T14:52:48.561Z,17.80
2019-03-31T14:55:22.000Z,17.70
2019-03-31T14:57:55.363Z,17.80
2019-03-31T15:00:29.419Z,17.70
2019-03-31T15:03:04.975Z,17.40
2019-03-31T15:05:39.213Z,17.00
2019-03-31T15:08:13.461Z,16.80
2019-03-31T15:10:48.113Z,16.80
2019-03-31T15:13:25.921Z,16.80
2019-03-31T15:15:59.713Z,16.80
2019-03-31T15:18:33.166Z,16.90
2019-03-31T15:21:08.339Z,16.90
2019-03-31T15:23:41.880Z,16.90
2019-03-31T15:26:17.013Z,16.80
2019-03-31T15:28:50.471Z,16.60
2019-03-31T15:31:24.240Z,16.60
2019-03-31T15:33:57.680Z,16.40
2019-03-31T15:36:33.863Z,16.30
2019-03-31T15:39:09.730Z,16.20
2019-03-31T15:41:45.220Z,16.20
2019-03-31T15:44:18.713Z,16.20
2019-03-31T15:46:52.270Z,16.30
2019-03-31T15:49:26.911Z,16.30
2019-03-31T15:52:00.783Z,16.20
2019-03-31T15:54:34.387Z,16.20
2019-03-31T15:57:12.042Z,16.10
2019-03-31T15:59:54.656Z,16.00
2019-03-31T16:02:32.012Z,15.80
2019-03-31T16:05:08.828Z,15.80
2019-03-31T16:07:48.380Z,15.70
2019-03-31T16:10:27.011Z,15.60
2019-03-31T16:13:00.431Z,15.50
2019-03-31T16:15:33.914Z,15.40
2019-03-31T16:18:10.008Z,15.30
2019-03-31T16:20:43.367Z,15.20
2019-03-31T16:23:18.010Z,15.10
2019-03-31T16:25:52.909Z,15.00
2019-03-31T16:28:26.300Z,14.80
2019-03-31T16:33:40.518Z,14.70
2019-03-31T16:36:15.961Z,14.60
2019-03-31T16:38:49.357Z,14.50
2019-03-31T16:41:22.754Z,14.40
2019-03-31T16:43:56.222Z,14.30
2019-03-31T16:46:30.794Z,14.20
2019-03-31T16:49:04.175Z,14.10
2019-03-31T16:51:41.603Z,14.00
2019-03-31T16:54:15.001Z,13.90
2019-03-31T16:56:50.020Z,13.80
2019-03-31T16:59:23.627Z,13.70
2019-03-31T17:01:56.983Z,13.50
2019-03-31T17:04:30.492Z,13.40
2019-03-31T17:07:04.182Z,13.30
2019-03-31T17:09:50.995Z,13.10
2019-03-31T17:12:15.638Z,13.00
2019-03-31T17:14:49.351Z,12.90
2019-03-31T17:17:22.714Z,12.80
2019-03-31T17:19:56.234Z,12.70
2019-03-31T17:22:29.753Z,12.50
2019-03-31T17:25:03.330Z,12.40
2019-03-31T17:27:39.136Z,12.30
2019-03-31T17:30:14.387Z,12.20
2019-03-31T17:32:47.836Z,12.10
2019-03-31T17:35:21.873Z,12.00
2019-03-31T17:37:55.576Z,11.90
2019-03-31T17:40:29.438Z,11.90
2019-03-31T17:43:02.917Z,11.80
2019-03-31T17:45:40.292Z,11.70
2019-03-31T17:48:16.053Z,11.60
2019-03-31T17:50:51.791Z,11.50
2019-03-31T17:53:25.473Z,11.50
2019-03-31T17:55:58.991Z,11.40
2019-03-31T17:58:32.551Z,11.30
2019-03-31T18:01:06.107Z,11.30
2019-03-31T18:03:39.650Z,11.20
2019-03-31T18:06:13.413Z,11.10
2019-03-31T18:08:47.415Z,11.00
2019-03-31T18:11:20.832Z,10.90
2019-03-31T18:13:54.360Z,10.90
2019-03-31T18:16:29.400Z,10.80
2019-03-31T18:19:04.771Z,10.80
2019-03-31T18:21:38.531Z,10.70
2019-03-31T18:24:11.928Z,10.60
2019-03-31T18:26:46.634Z,10.50
2019-03-31T18:29:20.063Z,10.40
2019-03-31T18:31:53.482Z,10.30
2019-03-31T18:34:43.863Z,10.30
2019-03-31T18:37:09.521Z,10.20
2019-03-31T18:39:47.046Z,10.10
2019-03-31T18:42:20.481Z,10.00
2019-03-31T18:44:54.714Z,9.90
2019-03-31T18:47:28.914Z,9.90
2019-03-31T18:50:03.000Z,9.80
2019-03-31T18:52:38.027Z,9.70
2019-03-31T18:55:13.231Z,9.70
2019-03-31T18:57:48.229Z,9.60
2019-03-31T19:00:24.446Z,9.50
2019-03-31T19:03:08.029Z,9.50
2019-03-31T19:06:03.661Z,9.40
2019-03-31T19:08:44.683Z,9.40
2019-03-31T19:11:31.241Z,9.30
2019-03-31T19:14:04.441Z,9.20
2019-03-31T19:16:40.105Z,9.20
2019-03-31T19:19:31.489Z,9.10
2019-03-31T19:22:05.063Z,9.00
2019-03-31T19:24:40.692Z,8.90
2019-03-31T19:27:31.968Z,8.80
2019-03-31T19:30:18.414Z,8.80
2019-03-31T19:32:59.207Z,8.70
2019-03-31T19:35:33.522Z,8.70
2019-03-31T19:38:14.299Z,8.60
2019-03-31T19:41:03.332Z,8.50
2019-03-31T19:43:28.811Z,8.50
2019-03-31T19:46:19.447Z,8.50
2019-03-31T19:49:00.536Z,8.40
2019-03-31T19:51:35.456Z,8.40
2019-03-31T19:54:28.750Z,8.40
2019-03-31T19:57:18.586Z,8.30
2019-03-31T20:00:06.604Z,8.20
2019-03-31T20:02:51.611Z,8.20
2019-03-31T20:05:27.136Z,8.10
2019-03-31T20:08:18.214Z,8.10
2019-03-31T20:10:53.163Z,8.00
2019-03-31T20:13:26.207Z,8.00
2019-03-31T20:16:16.771Z,7.90
2019-03-31T20:19:01.422Z,7.90
2019-03-31T20:21:45.111Z,7.80
2019-03-31T20:24:27.040Z,7.80
2019-03-31T20:27:08.648Z,7.70
2019-03-31T20:29:45.009Z,7.70
2019-03-31T20:32:19.880Z,7.60
2019-03-31T20:34:55.379Z,7.50
2019-03-31T20:37:30.297Z,7.50
2019-03-31T20:40:20.938Z,7.40
2019-03-31T20:43:07.423Z,7.40
2019-03-31T20:45:40.762Z,7.20
2019-03-31T20:48:15.153Z,7.20
2019-03-31T20:50:48.520Z,7.10
2019-03-31T20:53:23.445Z,7.00
2019-03-31T20:55:56.788Z,7.00
2019-03-31T20:58:30.157Z,6.90
2019-03-31T21:01:03.493Z,7.00
2019-03-31T21:03:36.898Z,6.90
2019-03-31T21:06:18.113Z,6.80
2019-03-31T21:08:51.508Z,6.70
2019-03-31T21:11:24.878Z,6.80
2019-03-31T21:13:58.296Z,6.60
2019-03-31T21:16:31.663Z,6.40
2019-03-31T21:19:06.258Z,6.40
2019-03-31T21:21:39.628Z,6.20
2019-03-31T21:24:13.118Z,6.30
2019-03-31T21:26:46.497Z,6.30
2019-03-31T21:29:19.885Z,6.30
2019-03-31T21:31:53.245Z,6.30
2019-03-31T21:41:20.058Z,6.20
2019-03-31T21:47:31.709Z,5.90
2019-03-31T21:50:06.876Z,5.70
2019-03-31T21:52:40.269Z,5.60
2019-03-31T21:55:13.626Z,5.40
2019-03-31T21:57:47.018Z,5.50
2019-03-31T22:00:23.959Z,5.50
2019-03-31T22:02:59.030Z,5.30
2019-03-31T22:05:32.483Z,5.40
2019-03-31T22:08:08.614Z,5.40
2019-03-31T22:10:42.018Z,5.40
2019-03-31T22:15:59.782Z,5.40
2019-03-31T22:18:33.229Z,5.40
2019-03-31T22:21:08.151Z,5.40
2019-03-31T22:23:41.462Z,5.40
2019-03-31T22:26:14.739Z,5.40
2019-03-31T22:28:48.206Z,5.30
2019-03-31T22:31:21.586Z,5.30
2019-03-31T22:33:56.067Z,5.30
2019-03-31T22:36:29.438Z,5.20
2019-03-31T22:39:02.914Z,5.00
2019-03-31T22:41:36.484Z,4.90
2019-03-31T22:44:09.871Z,4.90
2019-03-31T22:46:53.651Z,4.70
2019-03-31T22:49:18.242Z,4.70
2019-03-31T22:51:51.589Z,4.60
2019-03-31T22:54:25.005Z,4.50
2019-03-31T22:56:58.372Z,4.40
2019-03-31T23:02:36.879Z,4.30
2019-03-31T23:05:10.273Z,4.10
2019-03-31T23:07:43.639Z,4.20
2019-03-31T23:13:43.818Z,3.90
2019-03-31T23:18:49.395Z,3.80
2019-03-31T23:21:22.743Z,3.90
2019-03-31T23:23:56.118Z,3.60
2019-03-31T23:26:29.469Z,3.60
2019-03-31T23:29:02.872Z,3.70
2019-03-31T23:31:36.228Z,3.60
2019-03-31T23:37:53.319Z,3.50
2019-03-31T23:40:26.722Z,3.60
2019-03-31T23:43:00.082Z,3.50
2019-03-31T23:51:29.708Z,3.40
2019-03-31T23:54:03.083Z,3.30
2019-03-31T23:56:36.467Z,3.60
2019-03-31T23:59:09.848Z,3.60
